sensor_id;sensor_type;location;lat;lon;timestamp;temperature;humidity
16102;DHT22;56411;52.964;10.540;2022-07-05T00:00:44;13.60;99.90
16102;DHT22;56411;52.964;10.540;2022-07-05T00:03:11;13.60;99.90
16102;DHT22;56411;52.964;10.540;2022-07-05T00:05:38;13.70;99.90
16102;DHT22;56411;52.964;10.540;2022-07-05T00:08:06;13.70;99.90
16102;DHT22;56411;52.964;10.540;2022-07-05T00:10:35;13.70;99.90
16102;DHT22;56411;52.964;10.540;2022-07-05T00:13:05;13.70;99.90
16102;DHT22;56411;52.964;10.540;2022-07-05T00:15:32;13.70;99.90
16102;DHT22;56411;52.964;10.540;2022-07-05T00:17:59;13.60;99.90
16102;DHT22;56411;52.964;10.540;2022-07-05T00:20:26;13.50;99.90
16102;DHT22;56411;52.964;10.540;2022-07-05T00:22:53;13.40;99.90
16102;DHT22;56411;52.964;10.540;2022-07-05T00:25:20;13.10;99.90
16102;DHT22;56411;52.964;10.540;2022-07-05T00:27:47;12.90;99.90
16102;DHT22;56411;52.964;10.540;2022-07-05T00:30:15;12.80;99.90
16102;DHT22;56411;52.964;10.540;2022-07-05T00:32:42;12.70;99.90
16102;DHT22;56411;52.964;10.540;2022-07-05T00:35:09;12.70;99.90
16102;DHT22;56411;52.964;10.540;2022-07-05T00:37:36;12.70;99.90
16102;DHT22;56411;52.964;10.540;2022-07-05T00:40:05;12.70;99.90
16102;DHT22;56411;52.964;10.540;2022-07-05T00:42:33;12.80;99.90
16102;DHT22;56411;52.964;10.540;2022-07-05T00:45:00;12.80;99.90
16102;DHT22;56411;52.964;10.540;2022-07-05T00:47:30;12.70;99.90
16102;DHT22;56411;52.964;10.540;2022-07-05T00:49:57;12.70;99.90
16102;DHT22;56411;52.964;10.540;2022-07-05T00:52:24;12.70;99.90
16102;DHT22;56411;52.964;10.540;2022-07-05T00:54:51;12.80;99.90
16102;DHT22;56411;52.964;10.540;2022-07-05T00:57:20;12.80;99.90
16102;DHT22;56411;52.964;10.540;2022-07-05T00:59:47;12.70;99.90
16102;DHT22;56411;52.964;10.540;2022-07-05T01:02:14;12.70;99.90
16102;DHT22;56411;52.964;10.540;2022-07-05T01:04:43;12.70;99.90
16102;DHT22;56411;52.964;10.540;2022-07-05T01:07:10;12.80;99.90
16102;DHT22;56411;52.964;10.540;2022-07-05T01:09:37;12.80;99.90
16102;DHT22;56411;52.964;10.540;2022-07-05T01:12:04;12.80;99.90
16102;DHT22;56411;52.964;10.540;2022-07-05T01:14:32;12.80;99.90
16102;DHT22;56411;52.964;10.540;2022-07-05T01:16:59;12.80;99.90
16102;DHT22;56411;52.964;10.540;2022-07-05T01:19:26;12.80;99.90
16102;DHT22;56411;52.964;10.540;2022-07-05T01:21:55;12.70;99.90
16102;DHT22;56411;52.964;10.540;2022-07-05T01:24:25;12.70;99.90
16102;DHT22;56411;52.964;10.540;2022-07-05T01:26:52;12.60;99.90
16102;DHT22;56411;52.964;10.540;2022-07-05T01:29:19;12.50;99.90
16102;DHT22;56411;52.964;10.540;2022-07-05T01:31:46;12.50;99.90
16102;DHT22;56411;52.964;10.540;2022-07-05T01:34:13;12.40;99.90
16102;DHT22;56411;52.964;10.540;2022-07-05T01:36:40;12.30;99.90
16102;DHT22;56411;52.964;10.540;2022-07-05T01:39:08;12.30;99.90
16102;DHT22;56411;52.964;10.540;2022-07-05T01:41:36;12.20;99.90
16102;DHT22;56411;52.964;10.540;2022-07-05T01:44:04;12.20;99.90
16102;DHT22;56411;52.964;10.540;2022-07-05T01:46:34;12.20;99.90
16102;DHT22;56411;52.964;10.540;2022-07-05T01:49:06;12.20;99.90
16102;DHT22;56411;52.964;10.540;2022-07-05T01:51:34;12.20;99.90
16102;DHT22;56411;52.964;10.540;2022-07-05T01:54:04;12.20;99.90
16102;DHT22;56411;52.964;10.540;2022-07-05T01:56:31;12.20;99.90
16102;DHT22;56411;52.964;10.540;2022-07-05T01:59:00;12.20;99.90
16102;DHT22;56411;52.964;10.540;2022-07-05T02:01:35;12.10;99.90
16102;DHT22;56411;52.964;10.540;2022-07-05T02:04:03;12.10;99.90
16102;DHT22;56411;52.964;10.540;2022-07-05T02:06:31;12.10;99.90
16102;DHT22;56411;52.964;10.540;2022-07-05T02:08:59;12.00;99.90
16102;DHT22;56411;52.964;10.540;2022-07-05T02:11:26;12.00;99.90
16102;DHT22;56411;52.964;10.540;2022-07-05T02:13:53;12.00;99.90
16102;DHT22;56411;52.964;10.540;2022-07-05T02:16:26;12.00;99.90
16102;DHT22;56411;52.964;10.540;2022-07-05T02:18:53;11.90;99.90
16102;DHT22;56411;52.964;10.540;2022-07-05T02:21:20;11.90;99.90
16102;DHT22;56411;52.964;10.540;2022-07-05T02:23:47;11.80;99.90
16102;DHT22;56411;52.964;10.540;2022-07-05T02:26:20;11.70;99.90
16102;DHT22;56411;52.964;10.540;2022-07-05T02:28:47;11.50;99.90
16102;DHT22;56411;52.964;10.540;2022-07-05T02:31:16;11.40;99.90
16102;DHT22;56411;52.964;10.540;2022-07-05T02:33:46;11.20;99.90
16102;DHT22;56411;52.964;10.540;2022-07-05T02:36:13;11.10;99.90
16102;DHT22;56411;52.964;10.540;2022-07-05T02:38:41;11.00;99.90
16102;DHT22;56411;52.964;10.540;2022-07-05T02:41:09;10.90;99.90
16102;DHT22;56411;52.964;10.540;2022-07-05T02:43:38;10.80;99.90
16102;DHT22;56411;52.964;10.540;2022-07-05T02:46:06;10.70;99.90
16102;DHT22;56411;52.964;10.540;2022-07-05T02:48:35;10.70;99.90
16102;DHT22;56411;52.964;10.540;2022-07-05T02:51:04;10.70;99.90
16102;DHT22;56411;52.964;10.540;2022-07-05T02:53:31;10.60;99.90
16102;DHT22;56411;52.964;10.540;2022-07-05T02:55:58;10.60;99.90
16102;DHT22;56411;52.964;10.540;2022-07-05T02:58:25;10.50;99.90
16102;DHT22;56411;52.964;10.540;2022-07-05T03:00:51;10.50;99.90
16102;DHT22;56411;52.964;10.540;2022-07-05T03:03:18;10.50;99.90
16102;DHT22;56411;52.964;10.540;2022-07-05T03:05:45;10.50;99.90
16102;DHT22;56411;52.964;10.540;2022-07-05T03:08:14;10.50;99.90
16102;DHT22;56411;52.964;10.540;2022-07-05T03:10:40;10.50;99.90
16102;DHT22;56411;52.964;10.540;2022-07-05T03:13:07;10.60;99.90
16102;DHT22;56411;52.964;10.540;2022-07-05T03:15:34;10.60;99.90
16102;DHT22;56411;52.964;10.540;2022-07-05T03:18:01;10.60;99.90
16102;DHT22;56411;52.964;10.540;2022-07-05T03:20:31;10.50;99.90
16102;DHT22;56411;52.964;10.540;2022-07-05T03:22:58;10.50;99.90
16102;DHT22;56411;52.964;10.540;2022-07-05T03:25:26;10.40;99.90
16102;DHT22;56411;52.964;10.540;2022-07-05T03:27:53;10.40;99.90
16102;DHT22;56411;52.964;10.540;2022-07-05T03:30:20;10.40;99.90
16102;DHT22;56411;52.964;10.540;2022-07-05T03:32:48;10.40;99.90
16102;DHT22;56411;52.964;10.540;2022-07-05T03:35:15;10.40;99.90
16102;DHT22;56411;52.964;10.540;2022-07-05T03:37:42;10.40;99.90
16102;DHT22;56411;52.964;10.540;2022-07-05T03:40:10;10.40;99.90
16102;DHT22;56411;52.964;10.540;2022-07-05T03:42:38;10.30;99.90
16102;DHT22;56411;52.964;10.540;2022-07-05T03:45:06;10.30;99.90
16102;DHT22;56411;52.964;10.540;2022-07-05T03:47:33;10.30;99.90
16102;DHT22;56411;52.964;10.540;2022-07-05T03:50:00;10.30;99.90
16102;DHT22;56411;52.964;10.540;2022-07-05T03:52:27;10.30;99.90
16102;DHT22;56411;52.964;10.540;2022-07-05T03:54:54;10.30;99.90
16102;DHT22;56411;52.964;10.540;2022-07-05T03:57:21;10.30;99.90
16102;DHT22;56411;52.964;10.540;2022-07-05T03:59:49;10.30;99.90
16102;DHT22;56411;52.964;10.540;2022-07-05T04:02:16;10.30;99.90
16102;DHT22;56411;52.964;10.540;2022-07-05T04:04:43;10.30;99.90
16102;DHT22;56411;52.964;10.540;2022-07-05T04:07:10;10.30;99.90
16102;DHT22;56411;52.964;10.540;2022-07-05T04:09:37;10.30;99.90
16102;DHT22;56411;52.964;10.540;2022-07-05T04:12:05;10.40;99.90
16102;DHT22;56411;52.964;10.540;2022-07-05T04:14:32;10.40;99.90
16102;DHT22;56411;52.964;10.540;2022-07-05T04:17:00;10.50;99.90
16102;DHT22;56411;52.964;10.540;2022-07-05T04:19:27;10.50;99.90
16102;DHT22;56411;52.964;10.540;2022-07-05T04:21:54;10.60;99.90
16102;DHT22;56411;52.964;10.540;2022-07-05T04:24:21;10.70;99.90
16102;DHT22;56411;52.964;10.540;2022-07-05T04:26:48;10.80;99.90
16102;DHT22;56411;52.964;10.540;2022-07-05T04:29:15;10.90;99.90
16102;DHT22;56411;52.964;10.540;2022-07-05T04:31:42;11.00;99.90
16102;DHT22;56411;52.964;10.540;2022-07-05T04:34:10;11.10;99.90
16102;DHT22;56411;52.964;10.540;2022-07-05T04:36:40;11.20;99.90
16102;DHT22;56411;52.964;10.540;2022-07-05T04:39:07;11.20;99.90
16102;DHT22;56411;52.964;10.540;2022-07-05T04:41:34;11.30;99.90
16102;DHT22;56411;52.964;10.540;2022-07-05T04:44:01;11.40;99.90
16102;DHT22;56411;52.964;10.540;2022-07-05T04:46:28;11.50;99.90
16102;DHT22;56411;52.964;10.540;2022-07-05T04:48:55;11.60;99.90
16102;DHT22;56411;52.964;10.540;2022-07-05T04:51:24;11.60;99.90
16102;DHT22;56411;52.964;10.540;2022-07-05T04:53:51;11.70;99.90
16102;DHT22;56411;52.964;10.540;2022-07-05T04:56:18;11.80;99.90
16102;DHT22;56411;52.964;10.540;2022-07-05T04:58:45;12.00;99.90
16102;DHT22;56411;52.964;10.540;2022-07-05T05:01:12;12.10;99.90
16102;DHT22;56411;52.964;10.540;2022-07-05T05:03:39;12.20;99.90
16102;DHT22;56411;52.964;10.540;2022-07-05T05:06:06;12.40;99.90
16102;DHT22;56411;52.964;10.540;2022-07-05T05:08:34;12.50;99.90
16102;DHT22;56411;52.964;10.540;2022-07-05T05:11:01;12.60;99.90
16102;DHT22;56411;52.964;10.540;2022-07-05T05:13:28;12.70;99.90
16102;DHT22;56411;52.964;10.540;2022-07-05T05:15:55;12.80;99.90
16102;DHT22;56411;52.964;10.540;2022-07-05T05:18:22;12.80;99.90
16102;DHT22;56411;52.964;10.540;2022-07-05T05:20:52;12.90;99.90
16102;DHT22;56411;52.964;10.540;2022-07-05T05:23:20;13.00;99.90
16102;DHT22;56411;52.964;10.540;2022-07-05T05:25:48;13.10;99.90
16102;DHT22;56411;52.964;10.540;2022-07-05T05:28:15;13.20;99.90
16102;DHT22;56411;52.964;10.540;2022-07-05T05:30:42;13.30;99.90
16102;DHT22;56411;52.964;10.540;2022-07-05T05:33:09;13.40;99.90
16102;DHT22;56411;52.964;10.540;2022-07-05T05:35:36;13.50;99.90
16102;DHT22;56411;52.964;10.540;2022-07-05T05:38:04;13.70;99.90
16102;DHT22;56411;52.964;10.540;2022-07-05T05:40:31;13.80;99.90
16102;DHT22;56411;52.964;10.540;2022-07-05T05:43:00;13.90;99.90
16102;DHT22;56411;52.964;10.540;2022-07-05T05:45:27;14.00;99.90
16102;DHT22;56411;52.964;10.540;2022-07-05T05:47:56;14.20;99.90
16102;DHT22;56411;52.964;10.540;2022-07-05T05:50:24;14.20;99.90
16102;DHT22;56411;52.964;10.540;2022-07-05T05:52:51;14.40;99.90
16102;DHT22;56411;52.964;10.540;2022-07-05T05:55:18;14.40;99.90
16102;DHT22;56411;52.964;10.540;2022-07-05T05:57:46;14.50;99.90
16102;DHT22;56411;52.964;10.540;2022-07-05T06:00:16;14.60;99.90
16102;DHT22;56411;52.964;10.540;2022-07-05T06:02:43;14.70;99.90
16102;DHT22;56411;52.964;10.540;2022-07-05T06:05:10;14.70;99.90
16102;DHT22;56411;52.964;10.540;2022-07-05T06:07:48;14.90;99.90
16102;DHT22;56411;52.964;10.540;2022-07-05T06:10:16;15.00;99.90
16102;DHT22;56411;52.964;10.540;2022-07-05T06:12:43;15.10;99.90
16102;DHT22;56411;52.964;10.540;2022-07-05T06:15:10;15.10;99.90
16102;DHT22;56411;52.964;10.540;2022-07-05T06:17:39;15.20;99.90
16102;DHT22;56411;52.964;10.540;2022-07-05T06:20:07;15.30;99.90
16102;DHT22;56411;52.964;10.540;2022-07-05T06:22:34;15.40;99.90
16102;DHT22;56411;52.964;10.540;2022-07-05T06:25:02;15.50;99.90
16102;DHT22;56411;52.964;10.540;2022-07-05T06:27:29;15.50;99.90
16102;DHT22;56411;52.964;10.540;2022-07-05T06:29:56;15.60;99.90
16102;DHT22;56411;52.964;10.540;2022-07-05T06:32:23;15.70;99.90
16102;DHT22;56411;52.964;10.540;2022-07-05T06:34:51;15.80;99.90
16102;DHT22;56411;52.964;10.540;2022-07-05T06:37:18;15.90;99.90
16102;DHT22;56411;52.964;10.540;2022-07-05T06:39:45;15.90;99.90
16102;DHT22;56411;52.964;10.540;2022-07-05T06:42:12;16.00;99.90
16102;DHT22;56411;52.964;10.540;2022-07-05T06:44:39;16.00;99.90
16102;DHT22;56411;52.964;10.540;2022-07-05T06:47:06;16.10;99.90
16102;DHT22;56411;52.964;10.540;2022-07-05T06:49:33;16.20;99.90
16102;DHT22;56411;52.964;10.540;2022-07-05T06:52:01;16.30;99.90
16102;DHT22;56411;52.964;10.540;2022-07-05T06:54:28;16.40;99.90
16102;DHT22;56411;52.964;10.540;2022-07-05T06:56:55;16.50;99.90
16102;DHT22;56411;52.964;10.540;2022-07-05T06:59:22;16.60;99.90
16102;DHT22;56411;52.964;10.540;2022-07-05T07:01:49;16.60;99.90
16102;DHT22;56411;52.964;10.540;2022-07-05T07:04:16;16.70;99.90
16102;DHT22;56411;52.964;10.540;2022-07-05T07:06:43;16.80;99.90
16102;DHT22;56411;52.964;10.540;2022-07-05T07:09:11;16.80;99.90
16102;DHT22;56411;52.964;10.540;2022-07-05T07:11:48;16.80;99.90
16102;DHT22;56411;52.964;10.540;2022-07-05T07:14:15;16.90;99.90
16102;DHT22;56411;52.964;10.540;2022-07-05T07:16:43;17.00;99.90
16102;DHT22;56411;52.964;10.540;2022-07-05T07:19:10;17.10;99.90
16102;DHT22;56411;52.964;10.540;2022-07-05T07:21:38;17.20;99.90
16102;DHT22;56411;52.964;10.540;2022-07-05T07:24:05;17.20;99.90
16102;DHT22;56411;52.964;10.540;2022-07-05T07:26:34;17.20;99.90
16102;DHT22;56411;52.964;10.540;2022-07-05T07:29:27;17.10;99.90
16102;DHT22;56411;52.964;10.540;2022-07-05T07:31:55;17.10;99.90
16102;DHT22;56411;52.964;10.540;2022-07-05T07:34:23;17.10;99.90
16102;DHT22;56411;52.964;10.540;2022-07-05T07:36:50;17.20;99.90
16102;DHT22;56411;52.964;10.540;2022-07-05T07:39:17;17.40;99.90
16102;DHT22;56411;52.964;10.540;2022-07-05T07:41:45;17.40;99.90
16102;DHT22;56411;52.964;10.540;2022-07-05T07:44:13;17.50;99.90
16102;DHT22;56411;52.964;10.540;2022-07-05T07:46:40;17.50;99.90
16102;DHT22;56411;52.964;10.540;2022-07-05T07:49:07;17.70;99.90
16102;DHT22;56411;52.964;10.540;2022-07-05T07:51:34;17.70;99.90
16102;DHT22;56411;52.964;10.540;2022-07-05T07:54:01;17.70;99.90
16102;DHT22;56411;52.964;10.540;2022-07-05T07:56:29;17.70;99.90
16102;DHT22;56411;52.964;10.540;2022-07-05T07:58:57;17.80;99.90
16102;DHT22;56411;52.964;10.540;2022-07-05T08:01:24;17.90;99.90
16102;DHT22;56411;52.964;10.540;2022-07-05T08:03:51;18.00;99.90
16102;DHT22;56411;52.964;10.540;2022-07-05T08:06:18;18.00;99.90
16102;DHT22;56411;52.964;10.540;2022-07-05T08:08:45;18.00;99.90
16102;DHT22;56411;52.964;10.540;2022-07-05T08:11:14;18.10;99.90
16102;DHT22;56411;52.964;10.540;2022-07-05T08:13:41;18.10;99.90
16102;DHT22;56411;52.964;10.540;2022-07-05T08:16:10;18.20;99.90
16102;DHT22;56411;52.964;10.540;2022-07-05T08:18:37;18.30;99.90
16102;DHT22;56411;52.964;10.540;2022-07-05T08:21:30;18.40;99.90
16102;DHT22;56411;52.964;10.540;2022-07-05T08:23:58;18.70;99.90
16102;DHT22;56411;52.964;10.540;2022-07-05T08:26:25;18.70;99.90
16102;DHT22;56411;52.964;10.540;2022-07-05T08:28:52;18.70;99.90
16102;DHT22;56411;52.964;10.540;2022-07-05T08:31:20;18.70;99.90
16102;DHT22;56411;52.964;10.540;2022-07-05T08:33:47;18.50;99.90
16102;DHT22;56411;52.964;10.540;2022-07-05T08:36:14;18.40;99.90
16102;DHT22;56411;52.964;10.540;2022-07-05T08:38:41;18.40;99.90
16102;DHT22;56411;52.964;10.540;2022-07-05T08:41:10;18.50;99.90
16102;DHT22;56411;52.964;10.540;2022-07-05T08:43:40;18.70;99.90
16102;DHT22;56411;52.964;10.540;2022-07-05T08:46:08;18.90;99.90
16102;DHT22;56411;52.964;10.540;2022-07-05T08:48:38;19.00;99.90
16102;DHT22;56411;52.964;10.540;2022-07-05T08:51:11;19.00;99.90
16102;DHT22;56411;52.964;10.540;2022-07-05T08:53:39;19.10;99.90
16102;DHT22;56411;52.964;10.540;2022-07-05T08:56:08;19.20;99.90
16102;DHT22;56411;52.964;10.540;2022-07-05T08:58:36;19.20;99.90
16102;DHT22;56411;52.964;10.540;2022-07-05T09:01:04;19.10;99.90
16102;DHT22;56411;52.964;10.540;2022-07-05T09:03:32;19.30;99.90
16102;DHT22;56411;52.964;10.540;2022-07-05T09:06:02;19.40;99.90
16102;DHT22;56411;52.964;10.540;2022-07-05T09:08:30;19.40;99.90
16102;DHT22;56411;52.964;10.540;2022-07-05T09:11:01;19.20;99.90
16102;DHT22;56411;52.964;10.540;2022-07-05T09:13:33;19.20;99.90
16102;DHT22;56411;52.964;10.540;2022-07-05T09:15:59;19.20;99.90
16102;DHT22;56411;52.964;10.540;2022-07-05T09:18:40;19.10;99.90
16102;DHT22;56411;52.964;10.540;2022-07-05T09:21:19;19.00;99.90
16102;DHT22;56411;52.964;10.540;2022-07-05T09:23:54;19.30;99.90
16102;DHT22;56411;52.964;10.540;2022-07-05T09:26:25;19.60;99.90
16102;DHT22;56411;52.964;10.540;2022-07-05T09:28:54;19.80;99.90
16102;DHT22;56411;52.964;10.540;2022-07-05T09:31:30;19.80;99.90
16102;DHT22;56411;52.964;10.540;2022-07-05T09:34:03;19.90;99.90
16102;DHT22;56411;52.964;10.540;2022-07-05T09:36:53;19.80;99.90
16102;DHT22;56411;52.964;10.540;2022-07-05T09:39:35;19.70;99.90
16102;DHT22;56411;52.964;10.540;2022-07-05T09:42:10;19.70;99.90
16102;DHT22;56411;52.964;10.540;2022-07-05T09:44:37;19.70;99.90
16102;DHT22;56411;52.964;10.540;2022-07-05T09:47:08;19.70;99.90
16102;DHT22;56411;52.964;10.540;2022-07-05T09:49:37;19.90;99.90
16102;DHT22;56411;52.964;10.540;2022-07-05T09:52:06;20.10;99.90
16102;DHT22;56411;52.964;10.540;2022-07-05T09:54:33;20.30;99.90
16102;DHT22;56411;52.964;10.540;2022-07-05T09:57:00;20.10;99.90
16102;DHT22;56411;52.964;10.540;2022-07-05T09:59:27;20.00;99.90
16102;DHT22;56411;52.964;10.540;2022-07-05T10:01:54;19.90;99.90
16102;DHT22;56411;52.964;10.540;2022-07-05T10:04:21;20.00;99.90
16102;DHT22;56411;52.964;10.540;2022-07-05T10:06:49;19.90;99.90
16102;DHT22;56411;52.964;10.540;2022-07-05T10:09:17;19.90;99.90
16102;DHT22;56411;52.964;10.540;2022-07-05T10:11:45;19.90;99.90
16102;DHT22;56411;52.964;10.540;2022-07-05T10:14:16;20.00;99.90
16102;DHT22;56411;52.964;10.540;2022-07-05T10:16:47;20.10;99.90
16102;DHT22;56411;52.964;10.540;2022-07-05T10:19:19;20.20;99.90
16102;DHT22;56411;52.964;10.540;2022-07-05T10:21:47;20.40;99.90
16102;DHT22;56411;52.964;10.540;2022-07-05T10:24:17;20.50;99.90
16102;DHT22;56411;52.964;10.540;2022-07-05T10:26:46;20.90;99.90
16102;DHT22;56411;52.964;10.540;2022-07-05T10:29:14;21.10;99.90
16102;DHT22;56411;52.964;10.540;2022-07-05T10:31:43;21.30;99.90
16102;DHT22;56411;52.964;10.540;2022-07-05T10:34:12;21.30;99.90
16102;DHT22;56411;52.964;10.540;2022-07-05T10:36:40;21.50;99.90
16102;DHT22;56411;52.964;10.540;2022-07-05T10:39:08;21.70;99.90
16102;DHT22;56411;52.964;10.540;2022-07-05T10:41:37;21.70;99.90
16102;DHT22;56411;52.964;10.540;2022-07-05T10:44:05;21.90;99.90
16102;DHT22;56411;52.964;10.540;2022-07-05T10:46:34;22.10;99.90
16102;DHT22;56411;52.964;10.540;2022-07-05T10:49:13;21.90;99.90
16102;DHT22;56411;52.964;10.540;2022-07-05T10:51:40;21.50;99.90
16102;DHT22;56411;52.964;10.540;2022-07-05T10:54:07;21.00;99.90
16102;DHT22;56411;52.964;10.540;2022-07-05T10:56:35;21.00;99.90
16102;DHT22;56411;52.964;10.540;2022-07-05T10:59:07;21.00;99.90
16102;DHT22;56411;52.964;10.540;2022-07-05T11:01:39;20.90;99.90
16102;DHT22;56411;52.964;10.540;2022-07-05T11:04:27;21.10;99.90
16102;DHT22;56411;52.964;10.540;2022-07-05T11:06:59;21.20;99.90
16102;DHT22;56411;52.964;10.540;2022-07-05T11:09:27;21.60;99.90
16102;DHT22;56411;52.964;10.540;2022-07-05T11:12:05;22.50;99.90
16102;DHT22;56411;52.964;10.540;2022-07-05T11:14:36;22.90;99.90
16102;DHT22;56411;52.964;10.540;2022-07-05T11:17:18;23.00;99.90
16102;DHT22;56411;52.964;10.540;2022-07-05T11:20:15;23.20;99.90
16102;DHT22;56411;52.964;10.540;2022-07-05T11:23:09;23.20;99.30
16102;DHT22;56411;52.964;10.540;2022-07-05T11:25:39;22.50;99.90
16102;DHT22;56411;52.964;10.540;2022-07-05T11:28:18;22.80;99.90
16102;DHT22;56411;52.964;10.540;2022-07-05T11:30:52;23.00;99.90
16102;DHT22;56411;52.964;10.540;2022-07-05T11:33:32;23.40;99.90
16102;DHT22;56411;52.964;10.540;2022-07-05T11:36:18;23.00;99.40
16102;DHT22;56411;52.964;10.540;2022-07-05T11:39:11;22.50;99.70
16102;DHT22;56411;52.964;10.540;2022-07-05T11:41:42;22.20;99.90
16102;DHT22;56411;52.964;10.540;2022-07-05T11:44:10;21.90;99.90
16102;DHT22;56411;52.964;10.540;2022-07-05T11:46:40;21.80;99.90
16102;DHT22;56411;52.964;10.540;2022-07-05T11:49:08;21.60;99.90
16102;DHT22;56411;52.964;10.540;2022-07-05T11:51:35;21.60;99.90
16102;DHT22;56411;52.964;10.540;2022-07-05T11:54:02;21.60;99.90
16102;DHT22;56411;52.964;10.540;2022-07-05T11:56:31;21.70;99.90
16102;DHT22;56411;52.964;10.540;2022-07-05T11:58:58;21.90;99.90
16102;DHT22;56411;52.964;10.540;2022-07-05T12:01:25;22.40;99.90
16102;DHT22;56411;52.964;10.540;2022-07-05T12:03:54;22.50;99.30
16102;DHT22;56411;52.964;10.540;2022-07-05T12:06:22;22.20;99.50
16102;DHT22;56411;52.964;10.540;2022-07-05T12:09:02;22.00;99.90
16102;DHT22;56411;52.964;10.540;2022-07-05T12:11:29;21.80;99.80
16102;DHT22;56411;52.964;10.540;2022-07-05T12:14:20;22.00;99.90
16102;DHT22;56411;52.964;10.540;2022-07-05T12:16:47;21.90;99.80
16102;DHT22;56411;52.964;10.540;2022-07-05T12:19:25;21.90;99.90
16102;DHT22;56411;52.964;10.540;2022-07-05T12:21:53;22.00;99.90
16102;DHT22;56411;52.964;10.540;2022-07-05T12:24:21;22.30;99.90
16102;DHT22;56411;52.964;10.540;2022-07-05T12:26:50;23.10;99.90
16102;DHT22;56411;52.964;10.540;2022-07-05T12:29:18;23.90;97.20
16102;DHT22;56411;52.964;10.540;2022-07-05T12:32:00;25.00;97.10
16102;DHT22;56411;52.964;10.540;2022-07-05T12:34:29;25.90;95.10
16102;DHT22;56411;52.964;10.540;2022-07-05T12:36:56;25.80;94.60
16102;DHT22;56411;52.964;10.540;2022-07-05T12:39:24;24.90;94.50
16102;DHT22;56411;52.964;10.540;2022-07-05T12:41:51;24.30;95.30
16102;DHT22;56411;52.964;10.540;2022-07-05T12:44:19;24.40;94.30
16102;DHT22;56411;52.964;10.540;2022-07-05T12:46:47;24.40;96.20
16102;DHT22;56411;52.964;10.540;2022-07-05T12:49:16;23.70;96.70
16102;DHT22;56411;52.964;10.540;2022-07-05T12:51:45;23.20;96.20
16102;DHT22;56411;52.964;10.540;2022-07-05T12:54:20;22.60;97.20
16102;DHT22;56411;52.964;10.540;2022-07-05T12:57:05;22.20;98.80
16102;DHT22;56411;52.964;10.540;2022-07-05T13:00:03;22.20;98.20
16102;DHT22;56411;52.964;10.540;2022-07-05T13:02:34;22.20;98.40
16102;DHT22;56411;52.964;10.540;2022-07-05T13:05:01;22.40;97.80
16102;DHT22;56411;52.964;10.540;2022-07-05T13:07:30;22.40;97.70
16102;DHT22;56411;52.964;10.540;2022-07-05T13:10:12;22.90;97.60
16102;DHT22;56411;52.964;10.540;2022-07-05T13:12:39;23.90;96.50
16102;DHT22;56411;52.964;10.540;2022-07-05T13:15:07;24.80;94.90
16102;DHT22;56411;52.964;10.540;2022-07-05T13:17:34;24.60;94.30
16102;DHT22;56411;52.964;10.540;2022-07-05T13:20:01;24.00;95.20
16102;DHT22;56411;52.964;10.540;2022-07-05T13:22:30;23.30;95.00
16102;DHT22;56411;52.964;10.540;2022-07-05T13:24:57;22.70;95.90
16102;DHT22;56411;52.964;10.540;2022-07-05T13:27:24;22.40;96.60
16102;DHT22;56411;52.964;10.540;2022-07-05T13:29:51;22.40;97.20
16102;DHT22;56411;52.964;10.540;2022-07-05T13:32:18;22.30;97.70
16102;DHT22;56411;52.964;10.540;2022-07-05T13:34:47;22.30;97.20
16102;DHT22;56411;52.964;10.540;2022-07-05T13:37:14;22.40;97.60
16102;DHT22;56411;52.964;10.540;2022-07-05T13:39:44;22.80;96.30
16102;DHT22;56411;52.964;10.540;2022-07-05T13:42:11;23.40;95.80
16102;DHT22;56411;52.964;10.540;2022-07-05T13:44:39;23.60;94.90
16102;DHT22;56411;52.964;10.540;2022-07-05T13:47:06;23.70;95.30
16102;DHT22;56411;52.964;10.540;2022-07-05T13:49:33;24.60;95.40
16102;DHT22;56411;52.964;10.540;2022-07-05T13:52:00;25.30;95.20
16102;DHT22;56411;52.964;10.540;2022-07-05T13:54:28;25.90;94.00
16102;DHT22;56411;52.964;10.540;2022-07-05T13:56:59;25.80;94.30
16102;DHT22;56411;52.964;10.540;2022-07-05T13:59:26;25.20;93.20
16102;DHT22;56411;52.964;10.540;2022-07-05T14:01:54;24.30;94.70
16102;DHT22;56411;52.964;10.540;2022-07-05T14:04:22;23.90;94.90
16102;DHT22;56411;52.964;10.540;2022-07-05T14:06:50;23.70;94.70
16102;DHT22;56411;52.964;10.540;2022-07-05T14:09:17;23.60;94.60
16102;DHT22;56411;52.964;10.540;2022-07-05T14:11:44;23.30;94.60
16102;DHT22;56411;52.964;10.540;2022-07-05T14:14:13;23.00;95.50
16102;DHT22;56411;52.964;10.540;2022-07-05T14:16:40;23.20;96.10
16102;DHT22;56411;52.964;10.540;2022-07-05T14:19:07;23.90;95.20
16102;DHT22;56411;52.964;10.540;2022-07-05T14:21:34;24.50;94.20
16102;DHT22;56411;52.964;10.540;2022-07-05T14:24:01;25.20;94.00
16102;DHT22;56411;52.964;10.540;2022-07-05T14:26:28;24.80;93.50
16102;DHT22;56411;52.964;10.540;2022-07-05T14:28:55;24.30;94.60
16102;DHT22;56411;52.964;10.540;2022-07-05T14:31:24;23.90;94.60
16102;DHT22;56411;52.964;10.540;2022-07-05T14:33:53;23.40;93.70
16102;DHT22;56411;52.964;10.540;2022-07-05T14:36:19;23.20;95.50
16102;DHT22;56411;52.964;10.540;2022-07-05T14:38:46;23.60;95.80
16102;DHT22;56411;52.964;10.540;2022-07-05T14:41:13;24.10;94.80
16102;DHT22;56411;52.964;10.540;2022-07-05T14:43:41;24.30;95.20
16102;DHT22;56411;52.964;10.540;2022-07-05T14:46:09;24.70;94.10
16102;DHT22;56411;52.964;10.540;2022-07-05T14:48:40;24.70;95.60
16102;DHT22;56411;52.964;10.540;2022-07-05T14:51:07;25.10;94.10
16102;DHT22;56411;52.964;10.540;2022-07-05T14:53:34;25.50;93.80
16102;DHT22;56411;52.964;10.540;2022-07-05T14:56:01;25.20;92.80
16102;DHT22;56411;52.964;10.540;2022-07-05T14:58:28;25.40;92.10
16102;DHT22;56411;52.964;10.540;2022-07-05T15:00:57;24.90;92.50
16102;DHT22;56411;52.964;10.540;2022-07-05T15:03:24;24.70;93.80
16102;DHT22;56411;52.964;10.540;2022-07-05T15:05:53;24.60;93.80
16102;DHT22;56411;52.964;10.540;2022-07-05T15:08:20;24.20;95.50
16102;DHT22;56411;52.964;10.540;2022-07-05T15:10:47;24.50;95.60
16102;DHT22;56411;52.964;10.540;2022-07-05T15:13:17;25.00;94.10
16102;DHT22;56411;52.964;10.540;2022-07-05T15:15:44;25.10;94.30
16102;DHT22;56411;52.964;10.540;2022-07-05T15:18:11;24.90;93.80
16102;DHT22;56411;52.964;10.540;2022-07-05T15:20:38;24.50;93.70
16102;DHT22;56411;52.964;10.540;2022-07-05T15:23:06;23.80;94.90
16102;DHT22;56411;52.964;10.540;2022-07-05T15:25:33;23.70;96.10